Time;durP1;ratioP1;P1;durP2;ratioP2;P2;SDS_P1;SDS_P2;PMS_P1;PMS_P2;Temp;Humidity;BMP_temperature;BMP_pressure;BME280_temperature;BME280_humidity;BME280_pressure;Samples;Min_cycle;Max_cycle;Signal;HPM_P1;HPM_P2
2023/07/15 00:01:20;;;;;;;4.30;2.83;;;21.50;99.90;;;;;;5015074;28;20076;-88
2023/07/15 00:03:58;;;;;;;5.70;2.70;;;21.70;99.90;;;;;;5015317;28;20022;-86
2023/07/15 00:06:28;;;;;;;5.95;3.53;;;21.70;99.90;;;;;;5015260;28;20034;-88
2023/07/15 00:08:55;;;;;;;4.53;2.80;;;22.20;99.90;;;;;;5015240;28;20022;-88
2023/07/15 00:11:23;;;;;;;8.50;2.83;;;21.70;99.90;;;;;;5015643;28;20076;-88
2023/07/15 00:13:49;;;;;;;7.88;3.22;;;21.70;99.90;;;;;;4997399;28;20052;-88
2023/07/15 00:16:14;;;;;;;6.93;3.03;;;21.60;99.90;;;;;;4995231;28;20478;-88
2023/07/15 00:18:41;;;;;;;2.97;2.63;;;21.70;99.90;;;;;;4995514;28;20049;-88
2023/07/15 00:21:23;;;;;;;6.60;2.92;;;21.70;99.90;;;;;;4995844;28;20030;-88
2023/07/15 00:23:55;;;;;;;4.18;2.67;;;21.70;99.90;;;;;;4995372;28;20033;-88
2023/07/15 00:26:22;;;;;;;5.97;2.53;;;21.70;99.90;;;;;;4996056;28;20041;-88
2023/07/15 00:28:50;;;;;;;4.70;2.72;;;21.70;99.90;;;;;;4995061;28;20075;-89
2023/07/15 00:31:17;;;;;;;3.08;2.60;;;21.70;99.90;;;;;;5003696;28;20046;-88
2023/07/15 00:33:43;;;;;;;2.75;2.38;;;21.70;99.90;;;;;;5002471;28;20078;-86
2023/07/15 00:36:10;;;;;;;8.10;2.80;;;22.20;99.90;;;;;;5014687;28;20025;-89
2023/07/15 00:38:39;;;;;;;8.30;3.72;;;21.70;99.90;;;;;;5014869;28;20022;-89
2023/07/15 00:41:28;;;;;;;6.55;2.50;;;21.70;99.90;;;;;;5015035;28;20026;-89
2023/07/15 00:44:00;;;;;;;5.07;2.58;;;21.70;99.90;;;;;;4971158;23;20085;-88
2023/07/15 00:46:47;;;;;;;7.18;2.58;;;21.60;99.90;;;;;;4976454;28;20031;-89
2023/07/15 00:49:20;;;;;;;6.90;2.88;;;21.60;99.90;;;;;;4975697;28;20019;-87
2023/07/15 00:51:48;;;;;;;7.65;2.80;;;21.60;99.90;;;;;;4974760;28;20035;-89
2023/07/15 00:54:21;;;;;;;4.40;2.13;;;21.60;99.90;;;;;;4976017;28;20019;-89
2023/07/15 00:56:56;;;;;;;4.60;2.50;;;21.70;99.90;;;;;;4976406;28;20054;-90
2023/07/15 00:59:22;;;;;;;2.47;2.08;;;21.70;99.90;;;;;;5011768;23;20058;-89
2023/07/15 01:01:49;;;;;;;7.45;2.80;;;21.70;99.90;;;;;;4995180;28;20393;-89
2023/07/15 01:04:15;;;;;;;3.28;2.42;;;21.80;99.90;;;;;;4994539;28;20030;-89
2023/07/15 01:06:54;;;;;;;20.45;3.00;;;21.60;99.90;;;;;;4995005;28;20101;-89
2023/07/15 01:09:20;;;;;;;5.55;2.58;;;21.60;99.90;;;;;;4995031;28;20372;-89
2023/07/15 01:11:45;;;;;;;5.95;2.20;;;21.90;99.90;;;;;;4994028;28;20129;-88
2023/07/15 01:14:12;;;;;;;4.00;2.42;;;21.60;99.90;;;;;;4994671;28;20022;-89
2023/07/15 01:16:39;;;;;;;11.27;2.90;;;22.00;99.90;;;;;;4994515;28;20363;-89
2023/07/15 01:19:05;;;;;;;5.72;2.53;;;21.60;99.90;;;;;;4994236;28;20034;-89
2023/07/15 01:21:35;;;;;;;5.13;2.70;;;22.20;99.90;;;;;;4994280;28;20118;-89
2023/07/15 01:24:02;;;;;;;3.50;2.75;;;21.60;99.90;;;;;;4994830;28;20026;-88
2023/07/15 01:26:29;;;;;;;3.97;2.60;;;21.50;99.90;;;;;;5000546;28;20030;-89
2023/07/15 01:29:03;;;;;;;5.30;2.30;;;21.50;99.90;;;;;;4995613;28;20026;-89
2023/07/15 01:31:30;;;;;;;5.07;2.47;;;21.30;99.90;;;;;;4994174;28;20030;-88
2023/07/15 01:33:55;;;;;;;3.97;2.30;;;21.50;99.90;;;;;;4993650;28;20113;-88
2023/07/15 01:36:24;;;;;;;5.57;2.20;;;21.60;99.90;;;;;;4994463;28;20062;-89
2023/07/15 01:38:49;;;;;;;3.40;2.58;;;21.40;99.90;;;;;;4992769;28;20023;-88
2023/07/15 01:41:24;;;;;;;3.83;2.92;;;21.60;99.90;;;;;;4985627;28;20117;-88
2023/07/15 01:43:50;;;;;;;4.32;2.42;;;21.50;99.90;;;;;;4993953;28;20105;-89
2023/07/15 01:46:15;;;;;;;6.63;2.42;;;21.50;99.90;;;;;;4993288;28;20110;-88
2023/07/15 01:48:41;;;;;;;8.85;3.97;;;21.40;99.90;;;;;;4993786;28;20438;-88
2023/07/15 01:51:06;;;;;;;6.55;2.90;;;21.40;99.90;;;;;;4993654;28;20382;-88
2023/07/15 01:53:32;;;;;;;5.00;2.33;;;21.50;99.90;;;;;;4993445;28;20058;-89
2023/07/15 01:55:58;;;;;;;4.00;2.38;;;21.30;99.90;;;;;;4993922;28;20030;-88
2023/07/15 01:58:23;;;;;;;5.20;2.85;;;21.80;99.90;;;;;;4994054;28;20039;-88
2023/07/15 02:00:49;;;;;;;3.33;3.00;;;21.30;99.90;;;;;;4993162;28;20118;-88
2023/07/15 02:03:15;;;;;;;5.38;2.70;;;21.40;99.90;;;;;;4994200;28;20480;-88
2023/07/15 02:05:41;;;;;;;4.43;2.30;;;21.10;99.90;;;;;;4993779;28;20517;-88
2023/07/15 02:08:06;;;;;;;5.70;3.22;;;21.10;99.90;;;;;;4993199;28;20389;-88
2023/07/15 02:10:32;;;;;;;8.63;3.72;;;21.10;99.90;;;;;;4993457;28;20027;-88
2023/07/15 02:12:57;;;;;;;4.00;2.75;;;21.10;99.90;;;;;;4993617;28;20027;-88
2023/07/15 02:15:26;;;;;;;10.77;3.38;;;21.20;99.90;;;;;;4993015;28;20104;-88
2023/07/15 02:17:52;;;;;;;8.07;3.08;;;21.60;99.90;;;;;;4992978;28;20458;-88
2023/07/15 02:20:19;;;;;;;6.35;3.28;;;21.00;99.90;;;;;;4995421;28;20041;-89
2023/07/15 02:22:44;;;;;;;6.30;3.30;;;21.10;99.90;;;;;;4994323;28;20066;-88
2023/07/15 02:25:10;;;;;;;3.55;2.83;;;21.00;99.90;;;;;;4992740;28;20026;-88
2023/07/15 02:27:36;;;;;;;8.05;3.08;;;21.10;99.90;;;;;;4993202;28;20047;-88
2023/07/15 02:30:01;;;;;;;3.50;2.70;;;21.10;99.90;;;;;;4992599;28;20486;-88
2023/07/15 02:32:35;;;;;;;6.78;3.17;;;21.00;99.90;;;;;;4993414;28;20363;-88
2023/07/15 02:35:02;;;;;;;5.60;3.03;;;21.20;99.90;;;;;;4993486;28;20545;-88
2023/07/15 02:37:31;;;;;;;4.05;3.58;;;21.00;99.90;;;;;;4993005;28;20030;-88
2023/07/15 02:39:57;;;;;;;6.10;3.17;;;21.00;99.90;;;;;;4993605;28;20105;-88
2023/07/15 02:42:23;;;;;;;5.10;3.10;;;21.00;99.90;;;;;;4992778;28;20447;-88
2023/07/15 02:44:48;;;;;;;8.75;3.47;;;20.90;99.90;;;;;;4993096;28;20045;-88
2023/07/15 02:47:14;;;;;;;3.53;2.83;;;20.90;99.90;;;;;;4993383;28;20121;-88
2023/07/15 02:49:39;;;;;;;8.90;3.20;;;20.90;99.90;;;;;;4992338;28;20098;-88
2023/07/15 02:52:11;;;;;;;5.22;2.75;;;21.00;99.90;;;;;;4993413;28;20035;-88
2023/07/15 02:54:36;;;;;;;7.93;3.42;;;20.90;99.90;;;;;;4992999;28;20029;-88
2023/07/15 02:57:02;;;;;;;4.70;2.78;;;20.90;99.90;;;;;;4992537;28;20073;-89
2023/07/15 02:59:33;;;;;;;13.95;2.92;;;20.90;99.90;;;;;;4993021;28;20109;-89
2023/07/15 03:01:59;;;;;;;4.80;2.80;;;21.10;99.90;;;;;;4993467;28;20027;-88
2023/07/15 03:04:24;;;;;;;5.18;2.78;;;20.90;99.90;;;;;;4992387;28;20053;-89
2023/07/15 03:06:52;;;;;;;6.43;3.45;;;21.40;99.90;;;;;;4993124;28;20474;-89
2023/07/15 03:09:47;;;;;;;4.93;2.67;;;21.40;99.90;;;;;;4993085;28;20027;-89
2023/07/15 03:12:13;;;;;;;7.25;3.03;;;20.80;99.90;;;;;;4991028;28;20049;-88
2023/07/15 03:14:51;;;;;;;3.83;3.05;;;20.80;99.90;;;;;;4994060;28;20019;-89
2023/07/15 03:17:17;;;;;;;4.97;3.10;;;21.30;99.90;;;;;;4994911;28;20023;-88
2023/07/15 03:19:46;;;;;;;6.78;3.55;;;20.80;99.90;;;;;;4992677;28;20394;-89
2023/07/15 03:22:15;;;;;;;4.65;2.80;;;21.10;99.90;;;;;;4992866;28;20070;-88
2023/07/15 03:24:40;;;;;;;6.03;2.67;;;21.30;99.90;;;;;;4992334;28;20026;-89
2023/07/15 03:27:06;;;;;;;3.55;2.55;;;20.70;99.90;;;;;;4993135;28;20374;-88
2023/07/15 03:29:32;;;;;;;5.80;3.17;;;20.70;99.90;;;;;;4993095;28;20104;-89
2023/07/15 03:31:57;;;;;;;5.32;2.45;;;20.70;99.90;;;;;;4992668;28;20165;-89
2023/07/15 03:34:29;;;;;;;5.82;2.70;;;20.70;99.90;;;;;;4993071;28;20023;-88
2023/07/15 03:36:54;;;;;;;4.93;2.20;;;20.80;99.90;;;;;;4995543;28;20036;-89
2023/07/15 03:39:21;;;;;;;3.72;2.30;;;20.70;99.90;;;;;;4996272;28;20109;-89
2023/07/15 03:42:04;;;;;;;4.85;2.15;;;20.70;99.90;;;;;;4998000;28;20022;-88
2023/07/15 03:44:29;;;;;;;9.02;2.67;;;20.90;99.90;;;;;;4996935;28;20113;-89
2023/07/15 03:46:57;;;;;;;5.97;2.85;;;20.70;99.90;;;;;;4996077;28;20101;-88
2023/07/15 03:49:23;;;;;;;5.28;2.60;;;20.70;99.90;;;;;;4996663;28;20560;-89
2023/07/15 03:51:49;;;;;;;4.75;2.25;;;21.30;99.90;;;;;;4996286;28;20113;-89
2023/07/15 03:54:15;;;;;;;5.85;2.50;;;21.40;99.90;;;;;;4995867;28;20101;-88
2023/07/15 03:56:41;;;;;;;4.82;2.10;;;20.70;99.90;;;;;;4995986;28;20384;-89
2023/07/15 03:59:07;;;;;;;2.75;2.42;;;20.70;99.90;;;;;;4995730;28;20057;-89
2023/07/15 04:01:35;;;;;;;12.77;2.80;;;22.20;99.90;;;;;;4994869;28;20037;-89
2023/07/15 04:04:04;;;;;;;6.93;3.17;;;20.70;99.90;;;;;;4996156;28;20478;-88
2023/07/15 04:06:45;;;;;;;4.47;2.40;;;20.70;99.90;;;;;;4995937;28;20026;-89
2023/07/15 04:09:11;;;;;;;4.38;2.50;;;20.70;99.90;;;;;;4996041;28;20105;-89
2023/07/15 04:11:38;;;;;;;19.67;3.50;;;20.70;99.90;;;;;;5000463;28;20117;-89
2023/07/15 04:14:03;;;;;;;4.30;2.35;;;20.70;99.90;;;;;;4995236;28;20458;-88
2023/07/15 04:16:29;;;;;;;5.00;3.33;;;20.70;99.90;;;;;;4995778;28;20026;-89
2023/07/15 04:18:55;;;;;;;2.42;1.90;;;20.70;99.90;;;;;;4996065;28;20085;-89
2023/07/15 04:21:34;;;;;;;4.40;2.45;;;20.80;99.90;;;;;;4995455;28;20494;-89
2023/07/15 04:24:00;;;;;;;3.45;2.10;;;20.80;99.90;;;;;;4996115;28;20114;-89
2023/07/15 04:26:32;;;;;;;3.15;2.35;;;20.80;99.90;;;;;;4995665;28;20061;-87
2023/07/15 04:28:58;;;;;;;4.80;3.08;;;20.80;99.90;;;;;;4994582;28;20470;-88
2023/07/15 04:31:24;;;;;;;5.18;2.58;;;20.80;99.90;;;;;;4984172;28;20081;-89
2023/07/15 04:33:58;;;;;;;5.85;2.92;;;20.80;99.90;;;;;;5012358;23;20077;-88
2023/07/15 04:36:24;;;;;;;2.95;2.38;;;21.60;99.90;;;;;;5014693;28;20022;-88
2023/07/15 04:38:50;;;;;;;3.03;2.17;;;21.30;99.90;;;;;;5015064;28;20026;-89
2023/07/15 04:41:15;;;;;;;3.47;2.47;;;20.80;99.90;;;;;;5015166;28;20033;-89
2023/07/15 04:43:48;;;;;;;4.93;2.20;;;20.90;99.90;;;;;;5013763;28;20034;-88
2023/07/15 04:46:14;;;;;;;3.78;2.00;;;20.80;99.90;;;;;;5015430;28;20025;-89
2023/07/15 04:48:40;;;;;;;5.13;2.63;;;21.30;99.90;;;;;;5014177;28;20026;-89
2023/07/15 04:51:06;;;;;;;2.85;2.53;;;20.80;99.90;;;;;;5014181;28;20487;-89
2023/07/15 04:53:32;;;;;;;10.57;2.75;;;20.80;99.90;;;;;;5014884;28;20142;-89
2023/07/15 04:55:58;;;;;;;3.88;2.30;;;20.90;99.90;;;;;;5013936;28;20468;-89
2023/07/15 04:58:24;;;;;;;3.70;2.38;;;20.90;99.90;;;;;;5015149;28;20157;-90
2023/07/15 05:00:49;;;;;;;3.67;2.08;;;20.90;99.90;;;;;;5013668;28;20022;-83
2023/07/15 05:03:15;;;;;;;4.78;2.35;;;20.90;99.90;;;;;;5013013;28;20397;-83
2023/07/15 05:05:41;;;;;;;4.88;2.53;;;20.80;99.90;;;;;;5015330;28;20026;-83
2023/07/15 05:08:24;;;;;;;3.42;2.10;;;20.70;99.90;;;;;;5013875;28;20033;-83
2023/07/15 05:10:51;;;;;;;2.67;2.13;;;20.90;99.90;;;;;;4992816;28;20825;-82
2023/07/15 05:13:17;;;;;;;6.40;1.85;;;20.90;99.90;;;;;;5010899;28;20393;-82
2023/07/15 05:15:43;;;;;;;3.50;2.30;;;20.90;99.90;;;;;;5010331;28;20436;-82
2023/07/15 05:18:09;;;;;;;2.05;1.85;;;21.00;99.90;;;;;;5011950;28;20037;-83
2023/07/15 05:20:35;;;;;;;3.17;1.80;;;21.00;99.90;;;;;;5011494;28;20034;-83
2023/07/15 05:23:02;;;;;;;1.58;1.48;;;21.00;99.90;;;;;;5012215;28;20113;-82
2023/07/15 05:25:28;;;;;;;5.65;1.73;;;21.50;99.90;;;;;;5012954;28;20026;-82
2023/07/15 05:27:54;;;;;;;2.53;1.67;;;21.10;99.90;;;;;;5013284;28;20477;-83
2023/07/15 05:30:20;;;;;;;3.08;2.08;;;21.10;99.90;;;;;;5013216;28;20029;-83
2023/07/15 05:32:46;;;;;;;4.18;1.70;;;21.10;99.90;;;;;;5012012;28;20108;-82
2023/07/15 05:35:11;;;;;;;3.47;1.90;;;21.10;99.90;;;;;;5012657;28;20026;-83
2023/07/15 05:37:37;;;;;;;3.47;1.50;;;21.10;99.90;;;;;;5012631;28;20053;-82
2023/07/15 05:40:09;;;;;;;3.10;1.88;;;21.10;99.90;;;;;;5012567;28;20018;-80
2023/07/15 05:42:39;;;;;;;2.95;1.90;;;21.10;99.90;;;;;;5012723;28;20806;-82
2023/07/15 05:45:28;;;;;;;4.35;2.22;;;21.10;99.90;;;;;;5009828;28;20036;-86
2023/07/15 05:47:54;;;;;;;3.40;2.20;;;21.10;99.90;;;;;;4997607;28;20492;-89
2023/07/15 05:50:19;;;;;;;2.97;1.80;;;21.10;99.90;;;;;;5007581;28;20041;-90
2023/07/15 05:52:45;;;;;;;3.42;2.00;;;21.00;99.90;;;;;;5011582;28;20042;-90
2023/07/15 05:55:11;;;;;;;5.95;1.90;;;21.00;99.90;;;;;;5000610;28;20470;-89
2023/07/15 05:57:36;;;;;;;2.05;1.60;;;21.10;99.90;;;;;;5011112;28;20057;-89
2023/07/15 06:00:02;;;;;;;3.58;1.42;;;21.00;99.90;;;;;;5020965;28;20026;-90
2023/07/15 06:02:28;;;;;;;5.22;2.38;;;20.90;99.90;;;;;;5012132;28;20072;-90
2023/07/15 06:04:57;;;;;;;2.30;1.65;;;21.00;99.90;;;;;;5012708;28;20030;-89
2023/07/15 06:07:22;;;;;;;1.67;1.50;;;21.00;99.90;;;;;;5011603;28;20029;-90
2023/07/15 06:09:52;;;;;;;1.77;1.38;;;21.00;99.90;;;;;;5009941;23;20059;-89
2023/07/15 06:12:17;;;;;;;3.40;1.20;;;21.00;99.90;;;;;;4979641;28;20502;-90
2023/07/15 06:14:43;;;;;;;0.60;0.60;;;21.00;99.90;;;;;;4976097;28;20069;-89
2023/07/15 06:17:09;;;;;;;1.77;1.02;;;21.10;99.90;;;;;;4981744;23;20474;-89
2023/07/15 06:19:36;;;;;;;1.35;1.00;;;21.10;99.90;;;;;;4967549;28;20023;-90
2023/07/15 06:22:04;;;;;;;2.00;1.10;;;21.60;99.90;;;;;;4968580;28;20029;-90
2023/07/15 06:24:30;;;;;;;1.40;0.90;;;21.00;99.90;;;;;;4989790;23;20050;-89
2023/07/15 06:26:56;;;;;;;4.03;1.02;;;21.60;99.90;;;;;;4989287;28;20076;-90
2023/07/15 06:29:24;;;;;;;2.10;0.82;;;21.00;99.90;;;;;;4994401;28;20110;-89
2023/07/15 06:31:50;;;;;;;1.45;0.88;;;21.00;99.90;;;;;;4992200;28;20113;-90
2023/07/15 06:34:18;;;;;;;2.40;1.10;;;21.10;99.90;;;;;;4998316;23;20196;-89
2023/07/15 06:36:46;;;;;;;0.98;0.80;;;21.10;99.90;;;;;;4998754;23;20058;-89
2023/07/15 06:39:27;;;;;;;1.25;0.80;;;21.00;99.90;;;;;;5023508;23;20049;-89
2023/07/15 06:42:05;;;;;;;3.25;1.02;;;21.10;99.90;;;;;;4991736;28;20030;-89
2023/07/15 06:44:31;;;;;;;1.27;0.90;;;21.10;99.90;;;;;;4981554;28;20070;-90
2023/07/15 06:46:56;;;;;;;1.45;1.00;;;21.20;99.90;;;;;;4992457;28;20046;-90
2023/07/15 06:49:22;;;;;;;1.35;1.20;;;21.10;99.90;;;;;;5002421;23;20084;-90
2023/07/15 06:51:51;;;;;;;1.88;1.52;;;21.10;99.90;;;;;;5000775;23;20256;-90
2023/07/15 06:54:16;;;;;;;3.03;2.10;;;21.10;99.90;;;;;;4978420;28;20097;-89
2023/07/15 06:56:54;;;;;;;3.45;1.55;;;21.80;99.90;;;;;;4969576;28;20472;-90
2023/07/15 06:59:20;;;;;;;1.00;1.00;;;21.10;99.90;;;;;;4964072;23;20051;-90
2023/07/15 07:01:48;;;;;;;3.72;1.00;;;22.40;99.90;;;;;;4953122;28;20023;-89
2023/07/15 07:04:13;;;;;;;1.40;0.95;;;21.20;99.90;;;;;;4952961;28;20078;-90
2023/07/15 07:06:58;;;;;;;1.80;1.08;;;21.20;99.90;;;;;;4952990;28;20411;-89
2023/07/15 07:09:46;;;;;;;1.77;1.00;;;21.60;99.90;;;;;;4963026;23;20495;-90
2023/07/15 07:12:12;;;;;;;2.03;1.25;;;21.40;99.90;;;;;;4965810;28;20043;-90
2023/07/15 07:14:38;;;;;;;2.42;1.00;;;21.40;99.90;;;;;;4975121;28;20109;-83
2023/07/15 07:17:04;;;;;;;1.35;1.23;;;21.50;99.90;;;;;;4974079;28;20026;-83
2023/07/15 07:19:29;;;;;;;1.92;1.30;;;21.50;99.90;;;;;;4974198;28;20049;-83
2023/07/15 07:22:04;;;;;;;5.20;1.00;;;21.50;99.90;;;;;;4975810;28;20023;-87
2023/07/15 07:24:41;;;;;;;2.17;1.45;;;21.50;99.90;;;;;;4975543;28;20031;-89
2023/07/15 07:27:17;;;;;;;;;;;;;;;;;;;;;
2023/07/15 07:29:43;;;;;;;1.73;1.10;;;21.50;99.90;;;;;;4965080;23;20502;-88
2023/07/15 07:32:08;;;;;;;2.00;0.88;;;21.50;99.90;;;;;;4964480;28;20121;-89
2023/07/15 07:34:34;;;;;;;1.70;0.90;;;21.50;99.90;;;;;;4976465;28;20023;-87
2023/07/15 07:37:00;;;;;;;1.50;0.90;;;21.70;99.90;;;;;;4972432;23;20059;-87
2023/07/15 07:39:34;;;;;;;2.35;1.20;;;21.40;99.90;;;;;;4957647;29;20059;-89
2023/07/15 07:42:03;;;;;;;1.80;0.98;;;21.40;99.90;;;;;;4957416;29;20027;-89
2023/07/15 07:44:29;;;;;;;1.17;0.95;;;21.40;99.90;;;;;;4947642;29;20031;-91
2023/07/15 07:47:36;;;;;;;3.17;1.13;;;21.80;99.90;;;;;;4969570;23;20054;-88
2023/07/15 07:50:27;;;;;;;3.15;1.52;;;21.30;99.90;;;;;;4975490;28;20027;-87
2023/07/15 07:52:56;;;;;;;3.58;0.90;;;21.40;99.90;;;;;;4965502;28;20403;-87
2023/07/15 07:55:21;;;;;;;1.40;1.00;;;21.50;99.90;;;;;;4967969;28;20482;-87
2023/07/15 07:59:07;;;;;;;;;;;;;;;;;;;;;
2023/07/15 08:04:29;;;;;;;2.08;1.20;;;21.50;99.90;;;;;;4985903;28;20050;-89
2023/07/15 08:06:55;;;;;;;1.55;1.38;;;21.60;99.90;;;;;;4982215;28;20614;-90
2023/07/15 08:09:32;;;;;;;1.73;1.30;;;21.60;99.90;;;;;;4982704;28;20026;-90
2023/07/15 08:12:01;;;;;;;1.77;1.33;;;21.60;99.90;;;;;;4983441;28;20095;-88
2023/07/15 08:14:38;;;;;;;4.57;1.20;;;21.60;99.90;;;;;;4983580;28;20030;-89
2023/07/15 08:17:06;;;;;;;4.57;1.42;;;21.50;99.90;;;;;;4992786;28;20114;-88
2023/07/15 08:19:38;;;;;;;1.08;0.98;;;21.70;99.90;;;;;;4993555;28;20029;-86
2023/07/15 08:22:12;;;;;;;2.08;1.10;;;21.70;99.90;;;;;;4987212;28;20030;-86
2023/07/15 08:24:37;;;;;;;2.35;0.80;;;21.70;99.90;;;;;;4992463;28;20393;-87
2023/07/15 08:27:09;;;;;;;2.72;1.10;;;22.00;99.90;;;;;;4999726;23;20141;-87
2023/07/15 08:29:35;;;;;;;2.70;1.45;;;21.60;99.90;;;;;;4975673;28;20049;-86
2023/07/15 08:32:01;;;;;;;2.10;1.40;;;22.30;99.90;;;;;;4976061;28;20109;-87
2023/07/15 08:35:02;;;;;;;1.45;0.95;;;21.70;99.90;;;;;;4975193;28;20119;-87
2023/07/15 08:40:21;;;;;;;1.88;0.90;;;21.40;99.90;;;;;;5002148;23;20457;-87
2023/07/15 08:42:46;;;;;;;1.48;1.38;;;22.20;99.90;;;;;;4995393;28;20023;-89
2023/07/15 08:45:12;;;;;;;2.97;1.52;;;21.90;99.90;;;;;;5009039;28;20497;-92
2023/07/15 08:47:44;;;;;;;3.03;1.63;;;22.20;99.90;;;;;;4996593;28;20030;-92
2023/07/15 08:50:17;;;;;;;2.33;1.20;;;22.50;99.90;;;;;;4996199;28;20052;-92
2023/07/15 08:52:46;;;;;;;4.07;1.45;;;21.90;99.90;;;;;;4995407;28;20030;-88
2023/07/15 08:55:13;;;;;;;2.10;1.38;;;21.90;99.90;;;;;;4992670;28;20105;-87
2023/07/15 08:57:39;;;;;;;1.33;1.20;;;22.00;99.90;;;;;;4980420;28;20410;-86
2023/07/15 09:00:08;;;;;;;2.10;1.30;;;22.00;99.90;;;;;;4975765;28;20022;-85
2023/07/15 09:02:37;;;;;;;1.98;1.52;;;22.00;99.90;;;;;;4974616;28;20034;-86
2023/07/15 09:05:07;;;;;;;7.88;1.77;;;22.00;99.90;;;;;;4975346;28;20025;-88
2023/07/15 09:07:56;;;;;;;1.63;1.17;;;22.00;99.90;;;;;;4974987;28;20053;-86
2023/07/15 09:10:22;;;;;;;2.45;1.27;;;22.10;99.90;;;;;;4994374;28;20070;-85
2023/07/15 09:29:03;;;;;;;3.13;1.40;;;22.00;99.90;;;;;;5002482;23;20066;-93
2023/07/15 09:31:29;;;;;;;2.75;1.48;;;22.00;99.90;;;;;;4993023;28;20046;-94
2023/07/15 09:34:03;;;;;;;3.70;2.03;;;22.00;99.90;;;;;;4995316;28;20519;-94
2023/07/15 09:36:30;;;;;;;1.73;1.55;;;22.70;99.90;;;;;;4996068;28;20056;-93
2023/07/15 09:39:14;;;;;;;3.92;1.88;;;22.40;99.90;;;;;;5016147;28;20006;-93
2023/07/15 09:45:02;;;;;;;2.70;1.88;;;22.20;99.90;;;;;;4993750;28;20030;-83
2023/07/15 09:47:29;;;;;;;1.70;1.52;;;22.30;99.90;;;;;;4994162;28;20413;-91
2023/07/15 09:49:54;;;;;;;4.60;1.42;;;22.30;99.90;;;;;;4994901;28;20026;-88
2023/07/15 09:52:20;;;;;;;5.70;1.90;;;22.40;99.90;;;;;;4992916;28;20037;-85
2023/07/15 09:54:46;;;;;;;2.20;1.60;;;22.40;99.90;;;;;;4994302;28;20026;-85
2023/07/15 09:57:16;;;;;;;3.95;1.90;;;22.40;99.90;;;;;;4993847;28;20026;-85
2023/07/15 09:59:52;;;;;;;2.30;1.63;;;22.40;99.90;;;;;;4994313;28;20030;-93
2023/07/15 10:03:37;;;;;;;2.60;1.58;;;22.40;99.90;;;;;;4994182;28;20042;-91
2023/07/15 10:16:14;;;;;;;1.98;1.70;;;22.40;99.90;;;;;;4944822;23;20057;-85
2023/07/15 10:19:33;;;;;;;;;;;;;;;;;;;;;
2023/07/15 10:25:15;;;;;;;1.90;1.48;;;22.80;99.90;;;;;;4951357;28;20133;-89
2023/07/15 10:27:41;;;;;;;6.45;1.80;;;22.60;99.90;;;;;;4969370;28;20069;-88
2023/07/15 10:30:18;;;;;;;4.45;1.92;;;22.70;99.90;;;;;;4972706;28;20054;-88
2023/07/15 10:33:05;;;;;;;1.83;1.67;;;22.80;99.90;;;;;;4975293;28;20116;-85
2023/07/15 10:35:44;;;;;;;4.88;1.70;;;22.80;99.90;;;;;;4975825;28;20026;-84
2023/07/15 10:38:23;;;;;;;2.63;2.30;;;22.80;99.90;;;;;;4973438;28;20098;-89
2023/07/15 10:41:02;;;;;;;3.33;2.40;;;22.90;99.90;;;;;;4991511;28;20034;-88
2023/07/15 10:43:34;;;;;;;2.57;1.60;;;22.90;99.90;;;;;;4992189;28;20026;-88
2023/07/15 10:46:20;;;;;;;5.85;1.90;;;22.80;99.90;;;;;;4989699;28;20019;-87
2023/07/15 10:48:46;;;;;;;3.55;1.67;;;22.70;99.90;;;;;;4990040;28;20023;-87
2023/07/15 10:51:12;;;;;;;1.95;1.50;;;22.80;99.90;;;;;;4991955;28;20033;-87
2023/07/15 10:53:38;;;;;;;5.15;1.73;;;22.60;99.90;;;;;;4992528;28;20026;-87
2023/07/15 10:56:03;;;;;;;3.50;1.85;;;22.60;99.90;;;;;;4991961;28;20026;-87
2023/07/15 10:58:32;;;;;;;4.68;1.73;;;22.70;99.90;;;;;;4991965;28;20106;-87
2023/07/15 11:01:03;;;;;;;4.15;2.20;;;23.10;99.90;;;;;;4992403;28;20019;-86
2023/07/15 11:03:30;;;;;;;5.47;3.50;;;22.70;99.90;;;;;;4991611;28;20041;-86
2023/07/15 11:05:57;;;;;;;2.75;1.67;;;22.70;99.90;;;;;;4992425;28;20025;-87
2023/07/15 11:08:25;;;;;;;2.53;1.80;;;22.70;99.90;;;;;;4987264;28;20030;-85
2023/07/15 11:11:03;;;;;;;4.25;1.85;;;22.80;99.90;;;;;;4986592;28;20125;-89
2023/07/15 11:13:29;;;;;;;2.35;1.73;;;22.80;99.90;;;;;;4989292;28;20026;-87
2023/07/15 11:15:56;;;;;;;7.82;2.47;;;22.90;99.90;;;;;;4986150;28;20042;-86
2023/07/15 11:18:23;;;;;;;4.45;2.17;;;22.80;99.90;;;;;;4981450;28;20032;-87
2023/07/15 11:20:51;;;;;;;2.45;1.60;;;23.00;99.90;;;;;;4980884;28;20035;-87
2023/07/15 11:23:18;;;;;;;2.00;1.77;;;23.40;99.90;;;;;;4980028;28;20359;-89
2023/07/15 11:25:44;;;;;;;2.40;2.00;;;22.80;99.90;;;;;;4980485;28;20445;-89
2023/07/15 11:28:29;;;;;;;2.53;1.67;;;22.90;99.90;;;;;;4990560;28;20028;-88
2023/07/15 11:31:11;;;;;;;5.82;1.90;;;23.80;99.90;;;;;;5033716;23;20030;-88
2023/07/15 11:43:01;;;;;;;5.50;1.80;;;23.30;99.90;;;;;;3188338;26;20042;-88
2023/07/15 11:52:27;;;;;;;2.08;1.75;;;22.90;99.90;;;;;;4932674;28;20053;-89
2023/07/15 12:05:30;;;;;;;2.73;2.10;;;23.80;99.90;;;;;;5004940;23;20062;-88
2023/07/15 12:08:12;;;;;;;5.57;2.38;;;23.80;99.90;;;;;;4936122;29;20061;-87
2023/07/15 12:10:58;;;;;;;3.65;2.15;;;24.40;99.90;;;;;;4958979;23;20051;-86
2023/07/15 12:13:35;;;;;;;9.40;1.70;;;23.80;99.90;;;;;;4973143;28;20019;-87
2023/07/15 12:16:06;;;;;;;4.53;2.25;;;23.80;99.90;;;;;;4972611;28;20076;-86
2023/07/15 12:18:47;;;;;;;2.83;2.05;;;23.70;99.90;;;;;;5308126;23;20407;-92
2023/07/15 12:42:37;;;;;;;;;;;;;;;;;;;;;
2023/07/15 12:45:20;;;;;;;;;;;;;;;;;;;;;
2023/07/15 13:00:56;;;;;;;;;;;;;;;;;;;;;
2023/07/15 13:03:22;;;;;;;4.80;1.60;;;23.90;99.90;;;;;;4934452;23;20046;-85
2023/07/15 13:06:13;;;;;;;2.10;1.70;;;23.90;99.90;;;;;;5039917;23;20140;-86
2023/07/15 13:08:56;;;;;;;2.35;1.60;;;23.80;99.90;;;;;;5015855;28;20121;-88
2023/07/15 13:11:30;;;;;;;5.38;1.85;;;24.40;99.90;;;;;;5027127;28;20079;-92
2023/07/15 13:13:56;;;;;;;5.95;1.63;;;23.80;99.90;;;;;;5018309;28;20018;-87
2023/07/15 13:16:25;;;;;;;3.10;1.88;;;23.70;99.90;;;;;;5020624;28;20026;-88
2023/07/15 13:21:26;;;;;;;2.75;1.92;;;23.70;99.90;;;;;;5366345;23;20079;-87
2023/07/15 13:26:31;;;;;;;3.38;2.17;;;23.70;99.90;;;;;;4959042;23;20055;-87
2023/07/15 13:28:56;;;;;;;4.65;2.05;;;23.60;99.90;;;;;;4952779;28;20028;-87
2023/07/15 13:31:22;;;;;;;3.10;1.88;;;23.80;99.90;;;;;;4952607;28;20035;-83
2023/07/15 13:33:48;;;;;;;1.60;1.50;;;23.80;99.90;;;;;;4953141;29;20350;-84
2023/07/15 13:36:16;;;;;;;2.20;2.00;;;23.80;99.90;;;;;;4952289;28;20066;-85
2023/07/15 13:38:44;;;;;;;5.43;2.30;;;24.00;99.90;;;;;;4953396;28;20114;-84
2023/07/15 13:41:10;;;;;;;6.70;2.30;;;24.00;99.90;;;;;;4952442;28;20027;-85
2023/07/15 13:43:36;;;;;;;2.47;1.85;;;24.10;99.90;;;;;;4952362;29;20038;-85
2023/07/15 13:46:01;;;;;;;4.40;1.88;;;24.30;99.90;;;;;;4953096;29;20194;-86
2023/07/15 13:48:27;;;;;;;5.18;1.98;;;24.40;99.90;;;;;;4953148;28;20514;-85
2023/07/15 13:50:53;;;;;;;1.92;1.80;;;24.50;99.90;;;;;;4951787;29;20032;-86
2023/07/15 13:53:18;;;;;;;4.47;1.75;;;24.60;99.90;;;;;;4952758;28;20075;-84
2023/07/15 13:55:44;;;;;;;2.92;1.52;;;24.70;99.90;;;;;;4952562;28;20046;-85
2023/07/15 13:58:10;;;;;;;5.68;1.40;;;24.80;99.90;;;;;;4952597;28;20023;-84
2023/07/15 14:00:44;;;;;;;1.73;1.63;;;24.90;99.90;;;;;;4952813;28;20483;-85
2023/07/15 14:03:10;;;;;;;3.47;1.60;;;25.00;99.90;;;;;;4953447;28;20049;-84
2023/07/15 14:05:35;;;;;;;3.60;2.03;;;25.00;99.90;;;;;;4951969;28;20031;-84
2023/07/15 14:08:01;;;;;;;4.30;2.38;;;25.10;99.90;;;;;;4954007;28;20027;-85
2023/07/15 14:10:27;;;;;;;3.97;1.52;;;25.20;99.90;;;;;;4952862;28;20094;-84
2023/07/15 14:12:52;;;;;;;3.30;1.60;;;25.30;99.90;;;;;;4952123;28;20126;-85
2023/07/15 14:15:18;;;;;;;3.10;2.15;;;25.30;99.90;;;;;;4953233;28;20031;-85
2023/07/15 14:17:43;;;;;;;6.07;1.45;;;25.30;99.90;;;;;;4952482;28;20123;-85
2023/07/15 14:20:09;;;;;;;9.65;1.65;;;25.20;99.90;;;;;;4953407;28;20086;-84
2023/07/15 14:22:35;;;;;;;8.77;1.80;;;25.10;99.90;;;;;;4951338;28;20480;-83
2023/07/15 14:25:01;;;;;;;2.35;1.60;;;25.20;99.90;;;;;;4965965;28;20046;-84
2023/07/15 14:27:27;;;;;;;5.65;1.98;;;25.00;99.90;;;;;;4992178;28;20501;-84
2023/07/15 14:29:52;;;;;;;3.17;1.48;;;25.00;99.90;;;;;;4992643;28;20026;-84
2023/07/15 14:32:21;;;;;;;3.53;1.77;;;24.80;99.90;;;;;;4992391;28;20066;-84
2023/07/15 14:34:46;;;;;;;11.20;2.10;;;24.70;99.90;;;;;;4991460;28;20105;-84
2023/07/15 14:37:18;;;;;;;2.05;1.58;;;24.70;99.90;;;;;;4980637;28;20057;-84
2023/07/15 14:39:44;;;;;;;4.70;1.58;;;24.70;99.90;;;;;;4991396;28;20022;-84
2023/07/15 14:42:09;;;;;;;6.72;1.70;;;24.50;99.90;;;;;;4992925;28;20105;-84
2023/07/15 14:44:35;;;;;;;3.67;1.83;;;24.40;99.90;;;;;;4991856;28;20026;-85
2023/07/15 14:47:00;;;;;;;3.85;1.63;;;22.70;99.90;;;;;;4991208;28;20027;-84
2023/07/15 14:49:26;;;;;;;8.80;3.28;;;22.00;99.90;;;;;;4992335;28;20031;-83
2023/07/15 14:51:51;;;;;;;8.00;3.17;;;21.10;99.90;;;;;;5000849;28;20034;-84